createdAt,value
2017-07-31T00:01:59.854Z,2.90
2017-07-31T00:04:29.125Z,3.23
2017-07-31T00:06:58.437Z,3.10
2017-07-31T00:09:27.710Z,3.47
2017-07-31T00:11:56.966Z,3.03
2017-07-31T00:14:26.242Z,3.30
2017-07-31T00:16:55.609Z,3.00
2017-07-31T00:19:24.814Z,3.23
2017-07-31T00:21:54.104Z,3.67
2017-07-31T00:24:23.351Z,3.03
2017-07-31T00:26:52.598Z,3.50
2017-07-31T00:29:21.893Z,2.90
2017-07-31T00:31:51.146Z,2.83
2017-07-31T00:34:20.398Z,3.50
2017-07-31T00:36:50.436Z,3.13
2017-07-31T00:39:19.682Z,3.50
2017-07-31T00:41:49.070Z,2.87
2017-07-31T00:44:19.193Z,3.80
2017-07-31T00:46:48.521Z,3.57
2017-07-31T00:49:17.800Z,2.80
2017-07-31T00:51:47.044Z,3.23
2017-07-31T00:54:16.314Z,3.03
2017-07-31T00:56:45.625Z,2.50
2017-07-31T00:59:14.911Z,3.23
2017-07-31T01:01:44.163Z,2.80
2017-07-31T01:04:13.426Z,3.43
2017-07-31T01:06:42.672Z,3.60
2017-07-31T01:09:11.956Z,3.80
2017-07-31T01:11:41.207Z,2.73
2017-07-31T01:14:10.470Z,2.63
2017-07-31T01:16:39.741Z,3.07
2017-07-31T01:19:08.996Z,2.93
2017-07-31T01:21:38.269Z,3.13
2017-07-31T01:24:07.522Z,2.73
2017-07-31T01:26:36.794Z,2.97
2017-07-31T01:29:06.037Z,2.73
2017-07-31T01:31:35.304Z,2.93
2017-07-31T01:34:04.588Z,3.20
2017-07-31T01:36:33.835Z,2.90
2017-07-31T01:39:03.291Z,3.20
2017-07-31T01:41:32.542Z,3.50
2017-07-31T01:44:01.833Z,3.80
2017-07-31T01:46:31.085Z,3.47
2017-07-31T01:49:00.329Z,3.20
2017-07-31T01:51:29.810Z,3.40
2017-07-31T01:53:59.062Z,3.40
2017-07-31T01:56:29.126Z,3.40
2017-07-31T01:58:58.396Z,2.40
2017-07-31T02:01:27.658Z,3.70
2017-07-31T02:03:57.070Z,3.30
2017-07-31T02:06:26.502Z,4.03
2017-07-31T02:08:55.792Z,2.57
2017-07-31T02:11:25.306Z,3.33
2017-07-31T02:13:54.810Z,3.07
2017-07-31T02:16:24.089Z,3.27
2017-07-31T02:18:53.385Z,3.30
2017-07-31T02:21:22.649Z,3.00
2017-07-31T02:23:51.910Z,3.00
2017-07-31T02:26:21.952Z,3.60
2017-07-31T02:28:51.222Z,3.10
2017-07-31T02:31:20.521Z,3.30
2017-07-31T02:33:49.779Z,2.93
2017-07-31T02:36:19.075Z,3.40
2017-07-31T02:38:48.334Z,2.40
2017-07-31T02:41:18.435Z,2.83
2017-07-31T02:43:47.700Z,2.90
2017-07-31T02:46:16.954Z,2.70
2017-07-31T02:48:46.246Z,2.63
2017-07-31T02:51:15.639Z,2.73
2017-07-31T02:53:44.950Z,3.37
2017-07-31T02:56:15.034Z,2.63
2017-07-31T02:58:44.304Z,3.03
2017-07-31T03:01:13.585Z,3.07
2017-07-31T03:03:42.854Z,2.57
2017-07-31T03:06:12.093Z,2.40
2017-07-31T03:08:42.190Z,3.57
2017-07-31T03:11:11.474Z,3.17
2017-07-31T03:13:40.790Z,3.00
2017-07-31T03:16:10.058Z,2.53
2017-07-31T03:18:39.322Z,2.93
2017-07-31T03:21:08.587Z,2.90
2017-07-31T03:23:37.938Z,2.50
2017-07-31T03:26:07.221Z,3.40
2017-07-31T03:28:36.467Z,3.33
2017-07-31T03:31:05.909Z,2.37
2017-07-31T03:33:35.436Z,3.10
2017-07-31T03:36:05.447Z,3.43
2017-07-31T03:38:34.728Z,2.83
2017-07-31T03:41:04.057Z,2.57
2017-07-31T03:43:33.605Z,3.60
2017-07-31T03:46:03.146Z,2.20
2017-07-31T03:48:32.413Z,2.60
2017-07-31T03:51:01.699Z,3.00
2017-07-31T03:53:30.942Z,2.60
2017-07-31T03:56:00.431Z,2.10
2017-07-31T03:58:29.701Z,1.97
2017-07-31T04:00:59.122Z,3.20
2017-07-31T04:03:28.396Z,2.70
2017-07-31T04:05:57.658Z,2.63
2017-07-31T04:08:26.906Z,2.83
2017-07-31T04:10:56.177Z,3.03
2017-07-31T04:13:25.491Z,2.90
2017-07-31T04:15:54.782Z,2.60
2017-07-31T04:18:24.056Z,2.30
2017-07-31T04:20:53.328Z,2.50
2017-07-31T04:23:22.586Z,2.20
2017-07-31T04:25:51.834Z,2.23
2017-07-31T04:28:21.074Z,2.50
2017-07-31T04:30:50.360Z,2.13
2017-07-31T04:33:19.617Z,2.27
2017-07-31T04:35:48.898Z,2.80
2017-07-31T04:38:18.149Z,2.90
2017-07-31T04:40:47.490Z,2.20
2017-07-31T04:43:17.528Z,2.13
2017-07-31T04:45:46.809Z,2.50
2017-07-31T04:48:16.052Z,2.03
2017-07-31T04:50:45.329Z,2.20
2017-07-31T04:53:14.837Z,2.50
2017-07-31T04:55:44.073Z,2.83
2017-07-31T04:58:13.338Z,2.13
2017-07-31T05:00:43.394Z,2.10
2017-07-31T05:03:12.636Z,2.53
2017-07-31T05:05:41.897Z,2.10
2017-07-31T05:08:11.158Z,2.77
2017-07-31T05:10:41.184Z,2.00
2017-07-31T05:13:10.434Z,1.83
2017-07-31T05:15:39.688Z,1.53
2017-07-31T05:18:08.963Z,1.97
2017-07-31T05:20:39.009Z,2.03
2017-07-31T05:23:08.312Z,2.57
2017-07-31T05:25:37.581Z,2.80
2017-07-31T05:28:06.822Z,2.80
2017-07-31T05:30:36.079Z,2.80
2017-07-31T05:33:05.366Z,2.30
2017-07-31T05:35:34.618Z,3.50
2017-07-31T05:38:03.863Z,1.83
2017-07-31T05:40:33.134Z,2.00
2017-07-31T05:43:02.391Z,3.37
2017-07-31T05:45:31.662Z,2.63
2017-07-31T05:48:00.983Z,2.17
2017-07-31T05:50:30.839Z,1.93
2017-07-31T05:53:00.406Z,3.00
2017-07-31T05:55:30.461Z,2.63
2017-07-31T05:57:59.717Z,3.40
2017-07-31T06:00:29.051Z,2.33
2017-07-31T06:02:58.360Z,2.27
2017-07-31T06:05:27.613Z,2.13
2017-07-31T06:07:57.173Z,1.80
2017-07-31T06:10:26.443Z,1.63
2017-07-31T06:12:55.714Z,2.07
2017-07-31T06:15:25.157Z,1.77
2017-07-31T06:17:54.454Z,2.20
2017-07-31T06:20:24.482Z,1.87
2017-07-31T06:22:53.717Z,1.97
2017-07-31T06:25:23.038Z,1.93
2017-07-31T06:27:52.618Z,1.60
2017-07-31T06:30:21.881Z,1.40
2017-07-31T06:32:51.126Z,1.57
2017-07-31T06:35:20.378Z,1.53
2017-07-31T06:37:49.677Z,1.90
2017-07-31T06:40:18.931Z,1.90
2017-07-31T06:42:48.210Z,1.63
2017-07-31T06:45:17.625Z,1.87
2017-07-31T06:47:46.887Z,1.73
2017-07-31T06:50:16.146Z,1.60
2017-07-31T06:52:45.423Z,1.70
2017-07-31T06:55:14.669Z,2.10
2017-07-31T06:57:43.910Z,1.63
2017-07-31T07:00:13.953Z,1.53
2017-07-31T07:02:43.233Z,1.80
2017-07-31T07:05:12.522Z,1.90
2017-07-31T07:07:41.785Z,1.87
2017-07-31T07:10:11.070Z,1.60
2017-07-31T07:12:40.320Z,1.60
2017-07-31T07:15:09.625Z,1.93
2017-07-31T07:17:39.654Z,2.10
2017-07-31T07:20:08.931Z,2.10
2017-07-31T07:22:38.231Z,1.93
2017-07-31T07:25:07.554Z,1.90
2017-07-31T07:27:37.101Z,2.10
2017-07-31T07:30:06.357Z,1.53
2017-07-31T07:32:35.626Z,1.37
2017-07-31T07:35:04.916Z,2.10
2017-07-31T07:37:34.272Z,2.00
2017-07-31T07:40:03.564Z,2.13
2017-07-31T07:42:32.821Z,1.83
2017-07-31T07:45:02.081Z,1.83
2017-07-31T07:47:32.094Z,3.00
2017-07-31T07:50:01.382Z,1.90
2017-07-31T07:52:30.623Z,2.03
2017-07-31T07:54:59.874Z,2.50
2017-07-31T07:57:29.175Z,1.97
2017-07-31T07:59:58.453Z,1.90
2017-07-31T08:02:27.729Z,2.20
2017-07-31T08:04:57.038Z,2.03
2017-07-31T08:07:26.326Z,2.20
2017-07-31T08:09:55.578Z,2.20
2017-07-31T08:12:25.037Z,2.23
2017-07-31T08:14:54.285Z,2.10
2017-07-31T08:17:23.525Z,1.60
2017-07-31T08:19:52.787Z,2.00
2017-07-31T08:22:22.032Z,2.00
2017-07-31T08:24:51.328Z,1.97
2017-07-31T08:27:20.579Z,2.13
2017-07-31T08:29:49.855Z,2.17
2017-07-31T08:32:19.110Z,3.03
2017-07-31T08:34:48.354Z,2.90
2017-07-31T08:37:17.610Z,1.90
2017-07-31T08:39:48.315Z,2.00
2017-07-31T08:42:18.362Z,2.57
2017-07-31T08:44:48.322Z,2.53
2017-07-31T08:47:17.572Z,2.30
2017-07-31T08:49:46.918Z,2.27
2017-07-31T08:52:16.236Z,2.43
2017-07-31T08:54:45.586Z,2.00
2017-07-31T08:57:15.625Z,2.10
2017-07-31T08:59:44.950Z,3.00
2017-07-31T09:02:14.237Z,2.13
2017-07-31T09:04:43.521Z,2.53
2017-07-31T09:07:12.799Z,2.13
2017-07-31T09:09:42.043Z,2.00
2017-07-31T09:12:11.313Z,2.00
2017-07-31T09:14:41.389Z,2.03
2017-07-31T09:17:10.641Z,2.10
2017-07-31T09:19:39.947Z,1.97
2017-07-31T09:22:09.211Z,2.20
2017-07-31T09:24:38.494Z,2.60
2017-07-31T09:27:07.760Z,1.90
2017-07-31T09:29:37.035Z,2.20
2017-07-31T09:32:06.542Z,2.00
2017-07-31T09:34:36.573Z,2.50
2017-07-31T09:37:06.828Z,3.00
2017-07-31T09:39:36.131Z,2.37
2017-07-31T09:42:05.382Z,2.50
2017-07-31T09:44:35.416Z,2.43
2017-07-31T09:47:04.681Z,2.43
2017-07-31T09:49:33.934Z,2.50
2017-07-31T09:52:03.192Z,2.30
2017-07-31T09:54:32.529Z,1.90
2017-07-31T09:57:01.786Z,2.17
2017-07-31T09:59:31.928Z,2.60
2017-07-31T10:02:01.195Z,2.47
2017-07-31T10:04:30.434Z,2.77
2017-07-31T10:06:59.706Z,2.60
2017-07-31T10:09:29.001Z,2.57
2017-07-31T10:11:58.261Z,2.03
2017-07-31T10:14:27.510Z,2.90
2017-07-31T10:16:56.782Z,2.27
2017-07-31T10:19:26.029Z,2.53
2017-07-31T10:21:55.334Z,2.77
2017-07-31T10:24:24.577Z,2.60
2017-07-31T10:26:53.865Z,2.60
2017-07-31T10:29:23.240Z,2.13
2017-07-31T10:31:52.510Z,2.03
2017-07-31T10:34:21.776Z,1.90
2017-07-31T10:36:51.050Z,2.00
2017-07-31T10:39:21.135Z,2.20
2017-07-31T10:41:50.392Z,2.27
2017-07-31T10:44:19.677Z,2.10
2017-07-31T10:46:49.137Z,2.53
2017-07-31T10:49:18.586Z,2.33
2017-07-31T10:51:48.595Z,2.20
2017-07-31T10:54:17.836Z,1.83
2017-07-31T10:56:47.190Z,2.50
2017-07-31T10:59:16.465Z,1.50
2017-07-31T11:01:45.740Z,2.63
2017-07-31T11:04:15.013Z,2.27
2017-07-31T11:06:45.038Z,1.80
2017-07-31T11:09:14.304Z,2.40
2017-07-31T11:11:43.549Z,2.23
2017-07-31T11:14:13.055Z,2.90
2017-07-31T11:16:42.302Z,2.27
2017-07-31T11:19:11.564Z,2.20
2017-07-31T11:21:40.959Z,1.70
2017-07-31T11:24:10.502Z,2.20
2017-07-31T11:26:39.804Z,1.93
2017-07-31T11:29:09.074Z,2.23
2017-07-31T11:31:38.358Z,2.60
2017-07-31T11:34:08.374Z,2.03
2017-07-31T11:36:37.654Z,2.23
2017-07-31T11:39:06.894Z,2.33
2017-07-31T11:41:36.178Z,2.87
2017-07-31T11:44:06.216Z,2.30
2017-07-31T11:46:35.582Z,2.57
2017-07-31T11:49:04.828Z,2.80
2017-07-31T11:51:34.073Z,2.43
2017-07-31T11:54:03.355Z,2.43
2017-07-31T11:56:32.603Z,3.23
2017-07-31T11:59:02.767Z,3.33
2017-07-31T12:01:32.256Z,2.10
2017-07-31T12:04:01.534Z,2.70
2017-07-31T12:06:31.550Z,2.30
2017-07-31T12:09:00.797Z,2.13
2017-07-31T12:11:30.067Z,2.30
2017-07-31T12:13:59.338Z,2.57
2017-07-31T12:16:29.375Z,2.67
2017-07-31T12:18:58.630Z,2.87
2017-07-31T12:21:27.894Z,2.93
2017-07-31T12:23:57.189Z,2.77
2017-07-31T12:26:26.465Z,2.70
2017-07-31T12:28:55.701Z,2.60
2017-07-31T12:31:24.963Z,2.57
2017-07-31T12:33:54.256Z,3.10
2017-07-31T12:36:23.627Z,2.70
2017-07-31T12:38:52.896Z,2.70
2017-07-31T12:41:22.154Z,2.30
2017-07-31T12:43:51.416Z,2.37
2017-07-31T12:46:20.680Z,2.33
2017-07-31T12:48:50.695Z,2.57
2017-07-31T12:51:19.979Z,2.20
2017-07-31T12:53:49.231Z,3.33
2017-07-31T12:56:18.494Z,2.93
2017-07-31T12:58:47.768Z,2.57
2017-07-31T13:01:17.048Z,2.40
2017-07-31T13:03:46.302Z,1.93
2017-07-31T13:06:15.575Z,2.10
2017-07-31T13:08:45.254Z,2.30
2017-07-31T13:11:14.505Z,2.80
2017-07-31T13:13:44.547Z,2.33
2017-07-31T13:16:13.793Z,2.30
2017-07-31T13:18:43.065Z,2.40
2017-07-31T13:21:12.347Z,2.53
2017-07-31T13:23:41.591Z,2.50
2017-07-31T13:26:10.843Z,2.43
2017-07-31T13:28:40.116Z,2.67
2017-07-31T13:31:09.402Z,2.97
2017-07-31T13:33:38.659Z,2.43
2017-07-31T13:36:07.908Z,2.23
2017-07-31T13:38:37.182Z,1.90
2017-07-31T13:41:06.438Z,2.57
2017-07-31T13:43:35.718Z,2.53
2017-07-31T13:46:04.985Z,3.43
2017-07-31T13:48:34.466Z,2.47
2017-07-31T13:51:03.733Z,2.17
2017-07-31T13:53:33.010Z,2.33
2017-07-31T13:56:02.336Z,2.93
2017-07-31T13:58:31.577Z,2.73
2017-07-31T14:01:00.851Z,2.27
2017-07-31T14:03:30.142Z,1.97
2017-07-31T14:05:59.375Z,3.60
2017-07-31T14:08:28.646Z,2.30
2017-07-31T14:10:58.686Z,2.20
2017-07-31T14:13:28.240Z,2.50
2017-07-31T14:15:57.526Z,1.83
2017-07-31T14:18:26.840Z,2.40
2017-07-31T14:20:56.174Z,3.60
2017-07-31T14:23:26.213Z,2.90
2017-07-31T14:25:55.508Z,2.43
2017-07-31T14:28:24.823Z,2.37
2017-07-31T14:30:54.066Z,3.70
2017-07-31T14:33:23.372Z,2.67
2017-07-31T14:35:52.654Z,2.37
2017-07-31T14:38:21.909Z,2.53
2017-07-31T14:40:51.177Z,3.30
2017-07-31T14:43:20.469Z,2.60
2017-07-31T14:45:50.378Z,3.37
2017-07-31T14:48:19.918Z,2.60
2017-07-31T14:50:49.234Z,2.10
2017-07-31T14:53:19.247Z,3.60
2017-07-31T14:55:48.506Z,2.40
2017-07-31T14:58:17.767Z,3.10
2017-07-31T15:00:47.795Z,2.47
2017-07-31T15:03:17.098Z,2.33
2017-07-31T15:05:46.349Z,2.77
2017-07-31T15:08:15.763Z,2.60
2017-07-31T15:10:45.036Z,2.40
2017-07-31T15:13:14.650Z,1.57
2017-07-31T15:15:43.934Z,2.90
2017-07-31T15:18:13.182Z,3.00
2017-07-31T15:20:42.483Z,2.20
2017-07-31T15:23:11.736Z,3.27
2017-07-31T15:25:41.047Z,2.80
2017-07-31T15:28:10.287Z,2.30
2017-07-31T15:30:39.632Z,3.10
2017-07-31T15:33:08.887Z,3.60
2017-07-31T15:35:38.142Z,2.70
2017-07-31T15:38:07.413Z,2.70
2017-07-31T15:40:36.697Z,3.10
2017-07-31T15:43:06.233Z,3.10
2017-07-31T15:45:35.504Z,3.40
2017-07-31T15:48:04.811Z,3.03
2017-07-31T15:50:34.820Z,3.37
2017-07-31T15:53:04.095Z,2.93
2017-07-31T15:55:33.542Z,3.70
2017-07-31T15:58:03.557Z,3.17
2017-07-31T16:00:33.135Z,3.10
2017-07-31T16:03:02.408Z,2.80
2017-07-31T16:05:31.737Z,3.40
2017-07-31T16:08:01.006Z,3.13
2017-07-31T16:10:30.262Z,3.00
2017-07-31T16:12:59.598Z,3.20
2017-07-31T16:15:28.846Z,3.27
2017-07-31T16:17:58.116Z,3.20
2017-07-31T16:20:27.396Z,3.70
2017-07-31T16:22:56.672Z,3.47
2017-07-31T16:25:26.712Z,3.23
2017-07-31T16:27:55.980Z,3.53
2017-07-31T16:30:25.226Z,3.13
2017-07-31T16:32:54.501Z,2.80
2017-07-31T16:35:24.530Z,3.47
2017-07-31T16:37:59.661Z,3.33
2017-07-31T16:40:44.494Z,2.97
2017-07-31T16:43:31.353Z,3.40
2017-07-31T16:46:18.271Z,2.73
2017-07-31T16:48:48.513Z,3.10
2017-07-31T16:51:17.767Z,3.10
2017-07-31T16:53:47.829Z,3.57
2017-07-31T16:56:17.079Z,3.73
2017-07-31T16:58:46.492Z,3.70
2017-07-31T17:01:15.861Z,3.10
2017-07-31T17:03:45.156Z,3.00
2017-07-31T17:06:14.451Z,3.53
2017-07-31T17:08:43.724Z,3.97
2017-07-31T17:11:13.750Z,4.00
2017-07-31T17:13:43.001Z,3.83
2017-07-31T17:16:12.319Z,3.90
2017-07-31T17:18:41.584Z,3.70
2017-07-31T17:21:10.848Z,3.67
2017-07-31T17:23:40.127Z,3.63
2017-07-31T17:26:10.135Z,4.10
2017-07-31T17:28:39.397Z,3.20
2017-07-31T17:31:08.671Z,3.07
2017-07-31T17:33:37.921Z,4.07
2017-07-31T17:36:07.194Z,4.70
2017-07-31T17:38:36.508Z,3.60
2017-07-31T17:41:05.744Z,3.93
2017-07-31T17:43:35.009Z,3.63
2017-07-31T17:46:04.255Z,3.90
2017-07-31T17:48:34.275Z,3.97
2017-07-31T17:51:03.536Z,4.00
2017-07-31T17:53:32.818Z,3.83
2017-07-31T17:56:02.146Z,4.50
2017-07-31T17:58:31.386Z,4.23
2017-07-31T18:01:00.842Z,3.83
2017-07-31T18:03:30.090Z,4.40
2017-07-31T18:05:59.499Z,4.40
2017-07-31T18:08:29.552Z,4.90
2017-07-31T18:10:58.812Z,4.17
2017-07-31T18:13:28.119Z,4.67
2017-07-31T18:15:57.373Z,4.00
2017-07-31T18:18:26.637Z,3.90
2017-07-31T18:20:55.917Z,4.20
2017-07-31T18:23:26.007Z,4.93
2017-07-31T18:25:55.482Z,3.90
2017-07-31T18:28:24.734Z,3.93
2017-07-31T18:30:54.785Z,3.40
2017-07-31T18:33:24.262Z,5.93
2017-07-31T18:35:54.343Z,9.27
2017-07-31T18:38:23.622Z,7.07
2017-07-31T18:40:52.895Z,5.60
2017-07-31T18:43:22.168Z,4.73
2017-07-31T18:45:51.465Z,5.27
2017-07-31T18:48:20.758Z,5.07
2017-07-31T18:50:50.041Z,4.90
2017-07-31T18:55:15.138Z,5.00
2017-07-31T18:57:44.420Z,5.53
2017-07-31T19:00:13.808Z,6.20
2017-07-31T19:02:43.093Z,5.10
2017-07-31T19:05:12.332Z,4.57
2017-07-31T19:07:41.611Z,4.43
2017-07-31T19:10:10.902Z,5.30
2017-07-31T19:12:40.909Z,6.00
2017-07-31T19:15:10.178Z,4.67
2017-07-31T19:17:39.832Z,10.60
2017-07-31T19:20:09.136Z,5.00
2017-07-31T19:22:38.406Z,5.87
2017-07-31T19:25:07.672Z,5.93
2017-07-31T19:27:36.924Z,5.50
2017-07-31T19:30:06.283Z,5.53
2017-07-31T19:32:36.492Z,4.33
2017-07-31T19:35:05.756Z,5.50
2017-07-31T19:37:35.019Z,5.77
2017-07-31T19:40:04.261Z,7.03
2017-07-31T19:42:33.546Z,6.43
2017-07-31T19:45:02.829Z,5.87
2017-07-31T19:47:32.102Z,6.17
2017-07-31T19:50:01.378Z,5.60
2017-07-31T19:52:30.670Z,4.47
2017-07-31T19:54:59.965Z,5.90
2017-07-31T19:57:30.051Z,6.13
2017-07-31T19:59:59.894Z,5.67
2017-07-31T20:02:29.177Z,5.30
2017-07-31T20:04:58.493Z,4.97
2017-07-31T20:07:27.893Z,6.10
2017-07-31T20:09:57.562Z,5.30
2017-07-31T20:12:26.844Z,5.10
2017-07-31T20:14:56.825Z,5.50
2017-07-31T20:17:26.117Z,6.60
2017-07-31T20:19:55.416Z,5.47
2017-07-31T20:22:24.762Z,5.73
2017-07-31T20:24:54.018Z,5.63
2017-07-31T20:27:24.070Z,6.13
2017-07-31T20:29:53.344Z,5.77
2017-07-31T20:32:22.772Z,5.53
2017-07-31T20:34:52.943Z,6.27
2017-07-31T20:37:22.179Z,6.70
2017-07-31T20:39:52.218Z,5.70
2017-07-31T20:42:21.499Z,6.03
2017-07-31T20:44:50.752Z,5.03
2017-07-31T20:47:20.014Z,5.97
2017-07-31T20:49:49.307Z,5.63
2017-07-31T20:52:18.559Z,6.80
2017-07-31T20:54:47.846Z,6.40
2017-07-31T20:57:17.114Z,5.50
2017-07-31T20:59:46.367Z,5.63
2017-07-31T21:02:15.621Z,5.87
2017-07-31T21:04:44.915Z,6.20
2017-07-31T21:07:14.185Z,7.03
2017-07-31T21:09:43.463Z,5.70
2017-07-31T21:12:13.136Z,4.93
2017-07-31T21:14:42.387Z,6.10
2017-07-31T21:17:11.685Z,5.70
2017-07-31T21:19:40.954Z,6.00
2017-07-31T21:22:10.236Z,6.53
2017-07-31T21:24:40.217Z,5.97
2017-07-31T21:27:09.841Z,6.00
2017-07-31T21:29:39.876Z,5.30
2017-07-31T21:32:09.116Z,5.80
2017-07-31T21:34:38.389Z,6.30
2017-07-31T21:37:07.662Z,5.10
2017-07-31T21:39:37.710Z,6.30
2017-07-31T21:42:06.966Z,5.93
2017-07-31T21:44:36.419Z,5.80
2017-07-31T21:47:05.681Z,5.27
2017-07-31T21:49:35.725Z,5.83
2017-07-31T21:52:05.013Z,5.43
2017-07-31T21:54:34.274Z,5.67
2017-07-31T21:57:03.553Z,5.80
2017-07-31T21:59:32.834Z,5.20
2017-07-31T22:02:02.102Z,5.60
2017-07-31T22:04:31.382Z,5.47
2017-07-31T22:07:00.664Z,4.83
2017-07-31T22:09:29.913Z,6.27
2017-07-31T22:11:59.204Z,5.10
2017-07-31T22:14:28.458Z,5.83
2017-07-31T22:17:03.438Z,5.37
2017-07-31T22:19:32.753Z,5.50
2017-07-31T22:22:03.696Z,5.30
2017-07-31T22:24:34.118Z,7.73
2017-07-31T22:27:03.422Z,5.00
2017-07-31T22:29:32.698Z,5.10
2017-07-31T22:32:01.994Z,5.27
2017-07-31T22:34:31.275Z,5.87
2017-07-31T22:37:00.566Z,5.57
2017-07-31T22:39:29.899Z,5.37
2017-07-31T22:41:59.441Z,5.03
2017-07-31T22:44:28.685Z,4.77
2017-07-31T22:46:58.204Z,4.40
2017-07-31T22:49:27.467Z,5.90
2017-07-31T22:51:56.743Z,5.90
2017-07-31T22:54:26.804Z,6.40
2017-07-31T22:56:56.173Z,5.87
2017-07-31T22:59:26.207Z,4.97
2017-07-31T23:01:55.438Z,6.17
2017-07-31T23:04:24.755Z,5.67
2017-07-31T23:06:54.037Z,4.83
2017-07-31T23:09:23.286Z,5.80
2017-07-31T23:11:53.308Z,4.77
2017-07-31T23:14:22.602Z,4.43
2017-07-31T23:16:51.864Z,4.80
2017-07-31T23:19:21.123Z,4.67
2017-07-31T23:21:51.173Z,4.40
2017-07-31T23:24:20.518Z,4.80
2017-07-31T23:26:49.762Z,5.70
2017-07-31T23:29:19.059Z,5.90
2017-07-31T23:31:48.341Z,6.23
2017-07-31T23:34:17.617Z,5.80
2017-07-31T23:36:46.893Z,6.13
2017-07-31T23:39:16.149Z,6.90
2017-07-31T23:41:46.193Z,6.03
2017-07-31T23:44:15.464Z,6.90
2017-07-31T23:46:44.723Z,5.50
2017-07-31T23:49:13.970Z,5.63
2017-07-31T23:51:44.012Z,4.93
2017-07-31T23:54:13.279Z,5.30
2017-07-31T23:56:42.541Z,4.87
2017-07-31T23:59:11.801Z,4.90
